Time;durP1;ratioP1;P1;durP2;ratioP2;P2;SDS_P1;SDS_P2;PMS_P1;PMS_P2;Temp;Humidity;BMP_temperature;BMP_pressure;BME280_temperature;BME280_humidity;BME280_pressure;Samples;Min_cycle;Max_cycle;Signal;HPM_P1;HPM_P2
2023/09/11 00:02:21;;;;;;;10.30;9.40;;;;;;;15.41;82.34;93213.41;5071215;28;20209;-76
2023/09/11 00:04:46;;;;;;;10.57;9.80;;;;;;;15.37;82.86;93201.84;5072073;28;20173;-75
2023/09/11 00:07:12;;;;;;;9.70;8.97;;;;;;;15.26;83.38;93203.13;5052509;28;20237;-76
2023/09/11 00:09:37;;;;;;;10.40;9.53;;;;;;;15.20;83.38;93191.13;5051842;28;20193;-76
2023/09/11 00:12:03;;;;;;;11.53;10.27;;;;;;;15.31;83.31;93205.66;5069080;28;20268;-75
2023/09/11 00:14:28;;;;;;;11.30;10.50;;;;;;;15.27;83.42;93202.06;5071732;28;20185;-75
2023/09/11 00:16:54;;;;;;;11.00;10.03;;;;;;;15.16;83.66;93200.69;5070280;28;20214;-77
2023/09/11 00:19:19;;;;;;;11.50;10.30;;;;;;;14.91;84.75;93199.28;5071425;28;20194;-76
2023/09/11 00:21:44;;;;;;;11.50;10.37;;;;;;;15.03;84.38;93196.97;5054760;28;20234;-76
2023/09/11 00:24:10;;;;;;;11.50;10.43;;;;;;;14.97;85.13;93206.03;5051618;28;20254;-75
2023/09/11 00:26:35;;;;;;;11.40;10.23;;;;;;;14.86;85.44;93185.47;5065277;28;20247;-76
2023/09/11 00:29:00;;;;;;;10.30;9.40;;;;;;;14.88;86.27;93199.09;5071585;28;20242;-76
2023/09/11 00:31:26;;;;;;;10.63;9.83;;;;;;;14.86;85.85;93201.22;5071126;28;20244;-76
2023/09/11 00:33:51;;;;;;;10.93;9.97;;;;;;;14.95;86.18;93199.47;5071238;28;20220;-75
2023/09/11 00:36:16;;;;;;;10.27;9.37;;;;;;;14.72;86.50;93201.22;5070796;28;20263;-76
2023/09/11 00:38:42;;;;;;;11.50;10.70;;;;;;;14.68;87.14;93204.72;5070937;28;20208;-76
2023/09/11 00:41:07;;;;;;;11.53;10.73;;;;;;;14.64;87.21;93193.19;5060848;28;20229;-75
2023/09/11 00:43:32;;;;;;;10.80;10.00;;;;;;;14.88;86.51;93204.34;5050081;28;20221;-75
2023/09/11 00:45:58;;;;;;;11.27;10.10;;;;;;;14.78;86.95;93205.31;5059570;28;20218;-75
2023/09/11 00:48:24;;;;;;;11.50;10.40;;;;;;;14.82;87.19;93200.25;5069780;28;20213;-76
2023/09/11 00:50:50;;;;;;;12.07;11.03;;;;;;;14.75;87.19;93205.09;5070402;28;20224;-76
2023/09/11 00:53:17;;;;;;;12.17;11.20;;;;;;;14.77;87.25;93203.72;5070744;28;20764;-76
2023/09/11 00:55:45;;;;;;;11.70;10.90;;;;;;;14.36;88.82;93177.38;5070531;28;20311;-75
2023/09/11 00:58:12;;;;;;;11.33;10.60;;;;;;;14.65;88.97;93205.25;5070549;28;20197;-74
2023/09/11 01:00:38;;;;;;;11.73;10.83;;;;;;;14.52;88.83;93195.50;5064427;28;20229;-75
2023/09/11 01:03:04;;;;;;;10.80;10.00;;;;;;;14.67;88.88;93197.88;5041630;28;20217;-76
2023/09/11 01:05:30;;;;;;;10.90;10.20;;;;;;;14.29;90.54;93207.66;5046394;28;20220;-75
2023/09/11 01:07:56;;;;;;;11.87;10.97;;;;;;;14.34;91.15;93191.84;5070344;28;20186;-75
2023/09/11 01:10:21;;;;;;;11.83;10.20;;;;;;;14.48;89.97;93185.56;5066332;28;20241;-75
2023/09/11 01:12:47;;;;;;;11.47;10.47;;;;;;;14.46;89.63;93189.53;5036256;28;20209;-76
2023/09/11 01:15:12;;;;;;;11.57;10.77;;;;;;;14.59;88.97;93195.91;5052592;28;20190;-76
2023/09/11 01:17:42;;;;;;;12.93;11.77;;;;;;;14.51;88.63;93194.72;5070530;28;20197;-76
2023/09/11 01:20:25;;;;;;;11.33;10.50;;;;;;;14.18;90.37;93193.88;5070177;28;20178;-76
2023/09/11 01:22:56;;;;;;;11.10;10.10;;;;;;;14.18;91.35;93193.09;5070543;28;20196;-76
2023/09/11 01:25:58;;;;;;;10.50;9.70;;;;;;;14.16;91.48;93192.63;5070065;28;20240;-76
2023/09/11 01:29:11;;;;;;;11.37;10.53;;;;;;;14.14;91.36;93190.28;5070355;28;20204;-76
2023/09/11 01:31:38;;;;;;;11.80;10.80;;;;;;;14.17;91.30;93189.72;5066854;28;20308;-76
2023/09/11 01:34:05;;;;;;;11.37;10.63;;;;;;;14.23;91.21;93198.28;5067841;28;20272;-75
2023/09/11 01:36:31;;;;;;;10.80;10.07;;;;;;;14.12;91.76;93184.53;5063091;28;20243;-76
2023/09/11 01:38:57;;;;;;;11.60;10.50;;;;;;;14.23;92.23;93196.44;5069418;28;20204;-76
2023/09/11 01:41:34;;;;;;;11.37;10.67;;;;;;;14.17;92.28;93192.34;5068275;28;20255;-75
2023/09/11 01:44:11;;;;;;;11.03;10.10;;;;;;;14.06;92.06;93172.53;5069982;28;20178;-75
2023/09/11 01:46:37;;;;;;;11.80;10.83;;;;;;;14.08;92.60;93186.19;5054028;28;20222;-76
2023/09/11 01:49:03;;;;;;;11.90;10.97;;;;;;;14.06;92.70;93182.25;5049631;28;20240;-76
2023/09/11 01:51:30;;;;;;;12.07;11.07;;;;;;;14.15;93.42;93189.22;5062215;28;20229;-75
2023/09/11 01:53:57;;;;;;;11.67;10.83;;;;;;;14.16;92.73;93179.50;5069675;28;20173;-76
2023/09/11 01:56:23;;;;;;;12.10;11.17;;;;;;;14.00;93.82;93178.94;5057048;28;20282;-73
2023/09/11 01:58:48;;;;;;;11.13;10.43;;;;;;;13.91;94.09;93167.53;5049921;28;20174;-75
2023/09/11 02:01:13;;;;;;;12.60;11.60;;;;;;;14.00;94.29;93189.44;5060113;28;20274;-75
2023/09/11 02:03:40;;;;;;;12.37;11.37;;;;;;;13.98;94.70;93183.69;5069855;28;20189;-76
2023/09/11 02:06:06;;;;;;;11.17;10.37;;;;;;;13.99;94.59;93182.63;5069142;28;20786;-75
2023/09/11 02:08:32;;;;;;;11.33;10.43;;;;;;;13.82;95.23;93179.72;5069371;28;20212;-76
2023/09/11 02:10:57;;;;;;;11.77;10.57;;;;;;;13.80;95.09;93166.13;5059558;28;20237;-76
2023/09/11 02:13:23;;;;;;;11.50;10.10;;;;;;;13.49;94.96;93124.81;5037196;28;20205;-76
2023/09/11 02:15:48;;;;;;;11.67;10.80;;;;;;;13.67;96.34;93174.69;5055548;28;20229;-74
2023/09/11 02:18:13;;;;;;;10.67;10.00;;;;;;;13.66;96.15;93164.47;5069579;28;20185;-76
2023/09/11 02:20:39;;;;;;;11.47;10.77;;;;;;;13.57;96.36;93161.69;5068837;28;20241;-76
2023/09/11 02:23:04;;;;;;;12.17;11.07;;;;;;;13.45;96.79;93150.84;5069323;28;20189;-76
2023/09/11 02:25:29;;;;;;;12.30;11.03;;;;;;;13.60;96.97;93170.84;5063324;28;20242;-75
2023/09/11 02:27:55;;;;;;;10.90;10.20;;;;;;;13.51;97.78;93175.94;5048090;28;20202;-75
2023/09/11 02:30:20;;;;;;;13.63;11.57;;;;;;;13.56;97.59;93172.47;5052595;28;20225;-76
2023/09/11 02:32:45;;;;;;;11.83;10.73;;;;;;;13.59;97.04;93175.31;5069232;28;20912;-76
2023/09/11 02:35:11;;;;;;;13.80;10.93;;;;;;;13.41;97.55;93160.34;5069039;28;20727;-75
2023/09/11 02:37:36;;;;;;;13.67;10.13;;;;;;;13.45;98.08;93169.19;5069168;28;20201;-76
2023/09/11 02:40:03;;;;;;;11.77;10.60;;;;;;;13.43;97.72;93165.31;5067601;28;20199;-75
2023/09/11 02:42:28;;;;;;;12.67;11.63;;;;;;;13.55;97.77;93171.69;5049047;28;20189;-76
2023/09/11 02:44:53;;;;;;;11.00;9.90;;;;;;;13.41;98.02;93162.16;5052843;28;20194;-74
2023/09/11 02:47:19;;;;;;;10.97;10.00;;;;;;;13.49;97.73;93167.59;5072875;28;20288;-75
2023/09/11 02:49:44;;;;;;;11.67;10.87;;;;;;;13.32;99.26;93159.41;5073188;28;20181;-75
2023/09/11 02:52:09;;;;;;;11.27;10.37;;;;;;;13.32;98.28;93167.28;5072548;28;20229;-75
2023/09/11 02:54:35;;;;;;;10.67;9.97;;;;;;;13.38;97.97;93162.75;5073311;28;20185;-74
2023/09/11 02:57:00;;;;;;;12.50;11.50;;;;;;;13.34;98.15;93159.88;5054973;28;20213;-75
2023/09/11 02:59:25;;;;;;;13.37;12.17;;;;;;;13.20;98.75;93142.53;5053313;28;20190;-76
2023/09/11 03:01:51;;;;;;;12.70;11.60;;;;;;;13.11;99.06;93142.34;5068792;28;20217;-75
2023/09/11 03:04:16;;;;;;;12.37;11.57;;;;;;;13.19;99.06;93146.19;5073193;28;20216;-73
2023/09/11 03:06:41;;;;;;;12.83;11.60;;;;;;;13.27;99.00;93158.66;5072504;28;20224;-75
2023/09/11 03:09:07;;;;;;;11.10;10.13;;;;;;;13.26;98.34;93157.88;5073123;28;20208;-75
2023/09/11 03:11:33;;;;;;;11.33;10.20;;;;;;;13.21;99.10;93155.34;5053190;28;20238;-75
2023/09/11 03:13:58;;;;;;;12.43;11.30;;;;;;;13.14;98.24;93139.16;5045405;28;20198;-73
2023/09/11 03:16:24;;;;;;;11.70;10.70;;;;;;;13.00;99.40;93147.97;5064760;28;20219;-76
2023/09/11 03:18:49;;;;;;;12.00;10.90;;;;;;;13.02;99.45;93157.13;5072646;28;20883;-75
2023/09/11 03:21:15;;;;;;;12.40;10.43;;;;;;;13.14;99.81;93165.38;5060951;28;20283;-76
2023/09/11 03:23:40;;;;;;;13.07;11.77;;;;;;;13.09;99.63;93162.81;5051270;28;20186;-76
2023/09/11 03:26:13;;;;;;;11.13;10.33;;;;;;;13.11;100.00;93173.81;5056495;28;20228;-75
2023/09/11 03:28:39;;;;;;;11.97;11.00;;;;;;;13.10;100.00;93164.38;5071127;28;20193;-75
2023/09/11 03:31:04;;;;;;;12.70;11.67;;;;;;;13.17;99.71;93164.81;5071302;28;20296;-75
2023/09/11 03:33:29;;;;;;;11.30;10.30;;;;;;;13.24;99.98;93164.47;5067134;28;20174;-76
2023/09/11 03:35:55;;;;;;;10.93;10.03;;;;;;;13.21;100.00;93157.97;5063433;28;20217;-76
2023/09/11 03:38:20;;;;;;;12.60;11.37;;;;;;;13.28;99.81;93161.00;5072324;28;20215;-76
2023/09/11 03:40:46;;;;;;;12.50;11.33;;;;;;;12.99;100.00;93149.81;5065039;28;20240;-76
2023/09/11 03:43:11;;;;;;;13.23;11.10;;;;;;;13.04;100.00;93162.09;5072194;28;20178;-76
2023/09/11 03:45:37;;;;;;;14.43;11.77;;;;;;;13.18;100.00;93169.03;5065812;28;20247;-75
2023/09/11 03:48:02;;;;;;;12.40;11.10;;;;;;;13.24;100.00;93165.28;5051749;28;20244;-75
2023/09/11 03:50:28;;;;;;;11.30;10.50;;;;;;;13.11;100.00;93165.94;5053239;28;20218;-75
2023/09/11 03:52:54;;;;;;;11.40;10.60;;;;;;;13.10;100.00;93153.13;5071880;28;20201;-77
2023/09/11 03:55:20;;;;;;;12.20;11.10;;;;;;;13.03;100.00;93169.16;5065963;28;20233;-72
2023/09/11 03:57:45;;;;;;;11.83;10.80;;;;;;;13.02;100.00;93162.38;5042025;28;20232;-71
2023/09/11 04:00:12;;;;;;;11.70;10.63;;;;;;;12.95;100.00;93156.66;5047183;28;20190;-72
2023/09/11 04:02:38;;;;;;;11.43;10.53;;;;;;;13.22;100.00;93174.47;5071722;28;20200;-73
2023/09/11 04:05:04;;;;;;;10.93;10.20;;;;;;;13.16;100.00;93167.72;5070832;28;20181;-76
2023/09/11 04:07:29;;;;;;;11.17;9.67;;;;;;;13.09;100.00;93170.66;5065795;28;20239;-74
2023/09/11 04:09:55;;;;;;;11.63;10.63;;;;;;;13.04;100.00;93176.00;5064557;28;20177;-75
2023/09/11 04:12:20;;;;;;;11.77;10.87;;;;;;;12.96;100.00;93160.84;5065864;28;20263;-77
2023/09/11 04:14:45;;;;;;;11.33;10.33;;;;;;;12.96;100.00;93174.72;5068202;28;20193;-83
2023/09/11 04:17:11;;;;;;;14.43;11.40;;;;;;;13.08;100.00;93174.38;5045569;28;20233;-77
2023/09/11 04:19:39;;;;;;;11.83;11.03;;;;;;;13.07;100.00;93172.81;5042956;28;20185;-84
2023/09/11 04:22:06;;;;;;;12.20;11.10;;;;;;;13.00;100.00;93180.22;5066248;28;20289;-80
2023/09/11 04:24:32;;;;;;;11.73;10.53;;;;;;;13.16;100.00;93179.00;5060387;28;20174;-82
2023/09/11 04:26:57;;;;;;;11.57;10.63;;;;;;;13.16;100.00;93184.25;5062422;28;20248;-80
2023/09/11 04:29:24;;;;;;;10.73;9.83;;;;;;;13.23;100.00;93181.28;5058820;28;20173;-82
2023/09/11 04:31:49;;;;;;;12.47;11.40;;;;;;;13.32;100.00;93187.47;5052347;28;20643;-78
2023/09/11 04:34:16;;;;;;;11.20;10.30;;;;;;;13.33;100.00;93173.28;5047803;28;20244;-80
2023/09/11 04:36:42;;;;;;;11.60;10.83;;;;;;;13.50;100.00;93179.63;5059408;28;20213;-80
2023/09/11 04:39:07;;;;;;;12.13;11.03;;;;;;;13.37;100.00;93164.56;5066308;28;20427;-78
2023/09/11 04:41:33;;;;;;;12.57;11.33;;;;;;;13.48;100.00;93178.34;5063328;28;21141;-79
2023/09/11 04:43:58;;;;;;;11.57;10.80;;;;;;;13.35;100.00;93165.91;5062205;28;20220;-76
2023/09/11 04:46:23;;;;;;;11.47;10.67;;;;;;;13.55;100.00;93171.69;5059388;28;20218;-79
2023/09/11 04:48:49;;;;;;;11.43;10.50;;;;;;;13.86;98.15;93185.97;5067184;28;20213;-73
2023/09/11 04:51:14;;;;;;;11.00;10.17;;;;;;;13.78;98.24;93189.22;5047325;28;20239;-74
2023/09/11 04:53:39;;;;;;;11.13;10.03;;;;;;;13.81;98.77;93195.75;5042004;28;20190;-73
2023/09/11 04:56:05;;;;;;;10.97;9.93;;;;;;;13.93;97.74;93190.88;5042976;28;20228;-74
2023/09/11 04:58:30;;;;;;;10.80;9.43;;;;;;;14.02;96.69;93187.28;5051124;28;20198;-74
2023/09/11 05:00:56;;;;;;;10.07;9.33;;;;;;;13.88;96.08;93190.94;5057339;28;20218;-74
2023/09/11 05:03:21;;;;;;;10.37;9.67;;;;;;;14.17;95.89;93191.53;5043689;28;20186;-74
2023/09/11 05:05:50;;;;;;;10.20;9.60;;;;;;;14.24;95.55;93205.16;5051818;28;20222;-74
2023/09/11 05:08:15;;;;;;;10.23;9.63;;;;;;;14.29;94.97;93200.56;5056738;28;20205;-74
2023/09/11 05:10:42;;;;;;;11.10;10.07;;;;;;;14.28;95.93;93191.16;5056269;28;20222;-74
2023/09/11 05:13:07;;;;;;;10.03;9.23;;;;;;;14.24;96.34;93184.88;5053881;28;20204;-74
2023/09/11 05:15:33;;;;;;;10.57;9.73;;;;;;;14.36;95.26;93180.00;5067751;28;20221;-73
2023/09/11 05:17:58;;;;;;;9.67;9.07;;;;;;;14.40;95.35;93191.47;5060292;28;20258;-74
2023/09/11 05:20:23;;;;;;;10.83;9.73;;;;;;;14.56;94.28;93188.59;5064274;28;20288;-78
2023/09/11 05:22:49;;;;;;;10.47;9.57;;;;;;;14.36;94.51;93160.81;5040055;28;20293;-74
2023/09/11 05:25:14;;;;;;;10.17;9.37;;;;;;;14.63;93.60;93186.38;5043284;28;20236;-73
2023/09/11 05:27:40;;;;;;;11.33;10.50;;;;;;;14.81;92.24;93182.91;5063632;28;20182;-74
2023/09/11 05:30:06;;;;;;;10.17;9.53;;;;;;;14.97;90.37;93186.84;5059039;28;20193;-79
2023/09/11 05:32:32;;;;;;;9.33;8.60;;;;;;;15.12;89.42;93183.91;5034802;28;20217;-78
2023/09/11 05:34:58;;;;;;;9.67;8.77;;;;;;;14.99;90.79;93180.19;5045394;28;20226;-78
2023/09/11 05:37:23;;;;;;;9.47;8.70;;;;;;;15.16;88.58;93179.66;5055111;28;20185;-76
2023/09/11 05:39:49;;;;;;;10.30;9.60;;;;;;;14.95;91.23;93178.44;5069877;28;20192;-77
2023/09/11 05:42:14;;;;;;;10.97;10.27;;;;;;;15.36;88.31;93195.03;5046551;28;20305;-73
2023/09/11 05:44:40;;;;;;;12.27;9.73;;;;;;;15.41;88.24;93187.09;5046625;28;20245;-73
2023/09/11 05:47:07;;;;;;;10.67;9.83;;;;;;;15.40;87.90;93188.13;5052923;28;20218;-73
2023/09/11 05:49:33;;;;;;;11.03;10.03;;;;;;;14.89;89.78;93172.53;5066335;28;20244;-73
2023/09/11 05:51:58;;;;;;;10.67;9.97;;;;;;;15.05;90.83;93181.66;5058978;28;20229;-72
2023/09/11 05:54:24;;;;;;;10.30;9.37;;;;;;;15.11;91.28;93183.16;5060029;28;20235;-73
2023/09/11 05:56:52;;;;;;;10.70;10.00;;;;;;;15.14;90.00;93187.03;5063744;28;20243;-74
2023/09/11 05:59:19;;;;;;;10.40;9.47;;;;;;;15.25;90.26;93183.16;5052377;28;20301;-74
2023/09/11 06:01:48;;;;;;;10.97;10.17;;;;;;;15.52;88.21;93191.03;5052144;28;20280;-74
2023/09/11 06:04:13;;;;;;;12.37;10.13;;;;;;;15.44;88.15;93178.59;5052242;28;20194;-75
2023/09/11 06:06:39;;;;;;;13.00;12.20;;;;;;;15.70;86.99;93174.38;5063760;28;20239;-74
2023/09/11 06:09:08;;;;;;;11.33;10.53;;;;;;;16.17;86.18;93192.31;5062683;28;20200;-76
2023/09/11 06:11:36;;;;;;;23.40;21.47;;;;;;;16.02;86.53;93182.09;5051824;28;20240;-75
2023/09/11 06:14:04;;;;;;;12.63;10.83;;;;;;;15.83;86.45;93152.47;5043481;28;20190;-75
2023/09/11 06:16:29;;;;;;;11.50;10.80;;;;;;;15.82;88.04;93196.47;5044374;28;20257;-78
2023/09/11 06:18:55;;;;;;;12.57;11.13;;;;;;;16.23;85.75;93193.75;5053466;28;20194;-75
2023/09/11 06:21:21;;;;;;;16.00;13.83;;;;;;;16.08;85.77;93208.03;5050642;28;20236;-76
2023/09/11 06:23:46;;;;;;;12.27;11.10;;;;;;;16.40;85.29;93211.53;5035819;28;20186;-72
2023/09/11 06:26:12;;;;;;;10.67;9.73;;;;;;;16.55;83.39;93214.63;5051663;28;20218;-73
2023/09/11 06:28:37;;;;;;;11.97;11.07;;;;;;;16.61;83.20;93216.03;5057184;28;20198;-75
2023/09/11 06:31:03;;;;;;;11.97;10.83;;;;;;;16.63;83.96;93215.75;5064844;28;20289;-74
2023/09/11 06:33:29;;;;;;;12.30;11.00;;;;;;;16.85;82.22;93221.00;5062051;28;20191;-78
2023/09/11 06:35:54;;;;;;;19.67;10.47;;;;;;;16.93;82.13;93225.56;5059704;28;20237;-77
2023/09/11 06:38:21;;;;;;;11.47;10.27;;;;;;;16.53;83.66;93214.13;5048490;28;20190;-74
2023/09/11 06:40:46;;;;;;;14.40;10.80;;;;;;;16.89;83.10;93216.69;5055290;28;20221;-74
2023/09/11 06:43:12;;;;;;;11.27;10.23;;;;;;;17.00;82.65;93218.78;5068639;28;20212;-74
2023/09/11 06:45:38;;;;;;;13.40;11.47;;;;;;;17.49;79.74;93229.09;5062435;28;20240;-75
2023/09/11 06:48:04;;;;;;;14.27;11.20;;;;;;;16.88;80.22;93192.19;5048368;28;20770;-75
2023/09/11 06:50:30;;;;;;;11.73;10.63;;;;;;;17.16;80.75;93227.06;5053457;28;20233;-76
2023/09/11 06:52:56;;;;;;;12.67;10.93;;;;;;;17.52;78.38;93210.03;5068728;28;20257;-76
2023/09/11 06:55:21;;;;;;;10.57;9.40;;;;;;;17.82;77.27;93232.16;5059847;28;20229;-75
2023/09/11 06:58:00;;;;;;;16.87;11.37;;;;;;;17.45;79.02;93233.44;5057381;28;20186;-76
2023/09/11 07:00:26;;;;;;;11.70;10.70;;;;;;;17.84;78.12;93231.88;5059911;28;20244;-79
2023/09/11 07:02:51;;;;;;;12.00;10.67;;;;;;;18.07;75.96;93220.09;5065914;28;20181;-75
2023/09/11 07:05:18;;;;;;;12.17;11.20;;;;;;;18.06;75.53;93214.03;5062261;28;20777;-75
2023/09/11 07:07:44;;;;;;;12.00;10.80;;;;;;;17.95;77.64;93220.69;5063630;28;20185;-75
2023/09/11 07:10:20;;;;;;;12.97;10.53;;;;;;;18.07;77.19;93223.50;5059616;28;20201;-75
2023/09/11 07:12:46;;;;;;;14.50;12.80;;;;;;;18.53;74.51;93228.25;5036192;28;20206;-75
2023/09/11 07:15:12;;;;;;;13.03;10.37;;;;;;;18.39;75.66;93214.41;5042106;28;20205;-76
2023/09/11 07:17:37;;;;;;;13.80;12.27;;;;;;;18.76;74.29;93224.31;5066056;28;20185;-76
2023/09/11 07:20:04;;;;;;;11.53;10.57;;;;;;;18.85;73.39;93219.78;5056949;28;20177;-75
2023/09/11 07:22:30;;;;;;;12.07;11.07;;;;;;;18.83;73.07;93222.75;5063065;28;20185;-76
2023/09/11 07:24:55;;;;;;;11.93;10.73;;;;;;;18.62;73.40;93208.63;5062291;28;20186;-75
2023/09/11 07:27:21;;;;;;;11.70;10.70;;;;;;;19.19;72.18;93230.34;5042722;28;20194;-76
2023/09/11 07:29:46;;;;;;;13.00;11.03;;;;;;;19.32;71.80;93216.13;5039644;28;20189;-76
2023/09/11 07:32:12;;;;;;;16.33;11.27;;;;;;;18.92;72.47;93207.66;5054297;28;20243;-77
2023/09/11 07:34:37;;;;;;;12.70;11.50;;;;;;;19.13;71.85;93224.41;5065217;28;20254;-76
2023/09/11 07:37:03;;;;;;;12.03;11.03;;;;;;;19.08;71.82;93221.19;5049142;28;20218;-77
2023/09/11 07:39:29;;;;;;;12.17;9.97;;;;;;;19.44;68.46;93221.53;5052125;28;20184;-74
2023/09/11 07:41:54;;;;;;;10.13;9.33;;;;;;;19.47;68.52;93226.19;5057270;28;20245;-77
2023/09/11 07:44:19;;;;;;;10.10;9.30;;;;;;;19.75;67.05;93227.31;5067427;28;20207;-76
2023/09/11 07:46:45;;;;;;;11.27;9.57;;;;;;;19.76;65.51;93230.75;5067898;28;20209;-77
2023/09/11 07:49:10;;;;;;;10.50;9.50;;;;;;;19.97;64.83;93235.00;5067797;28;20223;-77
2023/09/11 07:51:35;;;;;;;14.10;9.50;;;;;;;20.11;64.53;93235.53;5051910;28;20233;-76
2023/09/11 07:54:01;;;;;;;11.03;9.57;;;;;;;20.33;64.38;93229.97;5048302;28;20219;-76
2023/09/11 07:56:26;;;;;;;12.47;11.17;;;;;;;20.17;63.70;93225.56;5063067;28;20223;-76
2023/09/11 07:58:53;;;;;;;12.07;9.80;;;;;;;20.42;62.82;93229.94;5060266;28;20247;-77
2023/09/11 08:01:19;;;;;;;10.10;9.10;;;;;;;20.57;62.54;93222.16;5049853;28;20227;-76
2023/09/11 08:03:47;;;;;;;9.70;9.00;;;;;;;20.64;61.60;93227.72;5044700;28;20185;-77
2023/09/11 08:06:14;;;;;;;9.93;9.13;;;;;;;20.70;56.31;93231.72;5055950;28;20227;-77
2023/09/11 08:08:39;;;;;;;10.10;9.20;;;;;;;20.79;57.77;93230.88;5068672;28;20196;-77
2023/09/11 08:11:19;;;;;;;11.07;9.50;;;;;;;20.92;55.93;93224.50;5054779;28;20220;-77
2023/09/11 08:13:46;;;;;;;10.27;9.47;;;;;;;21.06;55.65;93227.69;5046853;28;20189;-76
2023/09/11 08:16:12;;;;;;;10.67;8.70;;;;;;;21.12;56.25;93227.13;5048426;28;20209;-75
2023/09/11 08:18:37;;;;;;;16.60;8.93;;;;;;;21.23;54.43;93225.63;5065580;28;20184;-75
2023/09/11 08:21:04;;;;;;;10.53;9.53;;;;;;;21.07;54.11;93214.09;5055893;28;20230;-75
2023/09/11 08:23:29;;;;;;;10.77;9.67;;;;;;;21.11;54.36;93216.84;5038923;28;20178;-76
2023/09/11 08:25:58;;;;;;;11.33;10.40;;;;;;;21.24;55.69;93229.06;5054718;28;20224;-74
2023/09/11 08:28:24;;;;;;;13.13;9.82;;;;;;;21.07;55.26;93208.00;5069297;28;20176;-76
2023/09/11 08:30:50;;;;;;;10.25;9.48;;;;;;;21.13;56.58;93217.28;5056455;28;21314;-76
2023/09/11 08:33:16;;;;;;;9.57;8.87;;;;;;;21.46;54.69;93218.03;5066727;28;20566;-76
2023/09/11 08:35:42;;;;;;;10.93;9.88;;;;;;;21.52;54.25;93216.72;5070710;28;20251;-76
2023/09/11 08:38:08;;;;;;;10.23;9.17;;;;;;;21.45;53.84;93208.50;5071184;28;20184;-76
2023/09/11 08:40:33;;;;;;;10.48;9.57;;;;;;;21.48;54.68;93218.50;5068324;28;20219;-75
2023/09/11 08:42:59;;;;;;;10.20;9.27;;;;;;;21.48;53.35;93203.31;5070795;28;20189;-77
2023/09/11 08:45:26;;;;;;;10.38;9.30;;;;;;;21.26;55.31;93217.00;5070214;28;20237;-77
2023/09/11 08:47:55;;;;;;;10.90;10.00;;;;;;;21.61;54.95;93218.16;5071335;28;20241;-77
2023/09/11 08:50:25;;;;;;;12.63;9.27;;;;;;;21.71;54.10;93217.72;5070453;28;20236;-74
2023/09/11 08:52:52;;;;;;;9.73;9.02;;;;;;;21.89;52.58;93220.97;5070906;28;20210;-76
2023/09/11 08:55:19;;;;;;;10.68;8.73;;;;;;;21.93;52.35;93224.53;5067473;28;20263;-78
2023/09/11 08:57:46;;;;;;;10.02;9.27;;;;;;;21.64;52.09;93201.56;5065687;28;20207;-77
2023/09/11 09:00:13;;;;;;;10.50;9.57;;;;;;;21.77;52.94;93202.34;5065267;28;20241;-75
2023/09/11 09:02:39;;;;;;;9.95;9.15;;;;;;;21.96;51.50;93210.56;5050904;28;20199;-79
2023/09/11 09:05:06;;;;;;;10.00;9.20;;;;;;;21.63;52.72;93197.34;5052175;28;20224;-77
2023/09/11 09:07:32;;;;;;;10.55;9.55;;;;;;;21.88;52.69;93203.47;5071077;28;20194;-77
2023/09/11 09:09:58;;;;;;;10.95;8.65;;;;;;;21.96;50.81;93202.59;5070243;28;20192;-81
2023/09/11 09:12:25;;;;;;;10.27;9.13;;;;;;;21.84;51.74;93199.91;5070402;28;20204;-78
2023/09/11 09:14:50;;;;;;;9.32;8.43;;;;;;;22.13;51.52;93197.03;5070422;28;20179;-76
2023/09/11 09:17:16;;;;;;;10.55;9.73;;;;;;;22.28;49.95;93196.31;5061623;28;20226;-77
2023/09/11 09:19:41;;;;;;;10.70;9.70;;;;;;;22.18;49.20;93164.84;5051092;28;20231;-77
2023/09/11 09:22:08;;;;;;;9.68;8.93;;;;;;;22.43;47.60;93190.28;5063863;28;20229;-77
2023/09/11 09:24:35;;;;;;;9.98;9.27;;;;;;;22.44;47.95;93188.41;5069810;28;20278;-75
2023/09/11 09:27:04;;;;;;;10.00;9.10;;;;;;;22.45;48.78;93182.75;5070163;28;20226;-75
2023/09/11 09:29:37;;;;;;;9.55;8.70;;;;;;;22.55;49.01;93197.50;5070036;28;20191;-74
2023/09/11 09:32:04;;;;;;;8.85;8.18;;;;;;;22.38;49.28;93189.75;5052370;28;20230;-75
2023/09/11 09:34:31;;;;;;;9.93;8.68;;;;;;;22.57;48.29;93185.41;5050620;28;20228;-75
2023/09/11 09:36:57;;;;;;;12.50;11.05;;;;;;;22.53;49.28;93178.44;5065003;28;20227;-75
2023/09/11 09:39:28;;;;;;;8.93;8.23;;;;;;;22.55;49.54;93184.97;5068303;28;20272;-75
2023/09/11 09:41:56;;;;;;;10.15;9.30;;;;;;;22.65;46.83;93181.03;5069315;28;20252;-75
2023/09/11 09:44:36;;;;;;;9.40;8.50;;;;;;;22.65;45.62;93184.47;5069709;28;20254;-74
2023/09/11 09:47:13;;;;;;;11.68;8.93;;;;;;;22.71;45.19;93180.47;5068864;28;20218;-74
2023/09/11 09:49:49;;;;;;;10.95;9.25;;;;;;;22.62;46.50;93155.88;5069641;28;20201;-74
2023/09/11 09:52:17;;;;;;;9.07;8.45;;;;;;;22.59;45.27;93161.09;5048329;28;20238;-74
2023/09/11 09:54:46;;;;;;;9.23;8.43;;;;;;;22.64;46.67;93166.19;5046893;28;20192;-74
2023/09/11 09:57:13;;;;;;;9.32;8.52;;;;;;;22.79;46.01;93160.91;5067824;28;20216;-74
2023/09/11 09:59:41;;;;;;;10.23;9.02;;;;;;;22.76;47.29;93168.78;5069493;28;20206;-74
2023/09/11 10:02:10;;;;;;;9.63;8.82;;;;;;;22.46;46.33;93164.91;5069227;28;20220;-74
2023/09/11 10:04:36;;;;;;;10.25;9.35;;;;;;;22.78;44.68;93153.25;5069489;28;20356;-74
2023/09/11 10:07:02;;;;;;;9.27;8.52;;;;;;;22.62;45.24;93136.47;5051044;28;20218;-74
2023/09/11 10:09:27;;;;;;;9.00;8.30;;;;;;;22.75;46.25;93151.28;5049526;28;20195;-74
2023/09/11 10:11:53;;;;;;;9.88;8.52;;;;;;;22.90;45.61;93151.31;5065088;28;20225;-75
2023/09/11 10:14:18;;;;;;;9.10;8.50;;;;;;;22.63;46.11;93146.75;5069423;28;20194;-75
2023/09/11 10:16:46;;;;;;;9.48;8.88;;;;;;;22.81;45.78;93144.59;5053512;28;20227;-75
2023/09/11 10:19:12;;;;;;;9.38;8.70;;;;;;;22.92;45.13;93143.75;5049384;28;20255;-74
2023/09/11 10:21:37;;;;;;;9.43;8.63;;;;;;;23.02;45.68;93145.91;5063173;28;20229;-73
2023/09/11 10:24:04;;;;;;;9.48;8.82;;;;;;;22.93;45.74;93108.03;5069348;28;20183;-75
2023/09/11 10:26:54;;;;;;;12.55;8.15;;;;;;;23.09;46.88;93127.47;5068806;28;20224;-77
2023/09/11 10:29:34;;;;;;;12.70;9.38;;;;;;;23.53;45.44;93130.84;5069143;28;20180;-74
2023/09/11 10:32:08;;;;;;;9.77;9.07;;;;;;;23.46;45.09;93144.00;5068319;28;20228;-75
2023/09/11 10:34:36;;;;;;;9.82;8.93;;;;;;;23.15;44.57;93128.75;5058054;28;20172;-74
2023/09/11 10:37:04;;;;;;;9.60;8.77;;;;;;;23.36;44.44;93141.84;5068525;28;20227;-76
2023/09/11 10:39:30;;;;;;;9.57;8.65;;;;;;;23.22;45.57;93131.56;5068596;28;20655;-77
2023/09/11 10:41:56;;;;;;;9.38;8.70;;;;;;;23.29;45.30;93131.00;5068454;28;20222;-77
2023/09/11 10:44:21;;;;;;;9.32;8.52;;;;;;;22.53;45.20;93123.31;5069280;28;20197;-79
2023/09/11 10:46:48;;;;;;;10.13;9.32;;;;;;;22.35;45.71;93121.25;5067404;28;20689;-75
2023/09/11 10:49:17;;;;;;;9.75;8.90;;;;;;;22.42;46.01;93116.91;5068908;28;20315;-76
2023/09/11 10:51:45;;;;;;;10.07;9.13;;;;;;;22.49;46.14;93117.06;5068314;28;20220;-77
2023/09/11 10:54:21;;;;;;;10.55;9.02;;;;;;;22.87;44.22;93125.38;5069026;28;20190;-78
2023/09/11 10:56:48;;;;;;;8.85;8.07;;;;;;;22.96;45.33;93112.66;5052624;28;20218;-77
2023/09/11 10:59:14;;;;;;;8.80;8.05;;;;;;;23.16;44.12;93111.63;5049107;28;20543;-77
2023/09/11 11:01:40;;;;;;;9.07;8.38;;;;;;;23.39;43.63;93120.59;5048235;28;20223;-76
2023/09/11 11:04:06;;;;;;;9.45;8.52;;;;;;;23.52;42.19;93107.94;5049881;28;20211;-77
2023/09/11 11:06:33;;;;;;;9.30;8.60;;;;;;;23.41;42.75;93105.03;5065913;28;20224;-76
2023/09/11 11:08:59;;;;;;;111.60;13.77;;;;;;;23.25;44.03;93104.28;5072827;28;20183;-78
2023/09/11 11:11:30;;;;;;;10.63;8.80;;;;;;;23.44;43.42;93096.34;5071706;28;20218;-77
2023/09/11 11:14:13;;;;;;;9.63;8.07;;;;;;;23.46;43.85;93096.78;5072856;28;20212;-75
2023/09/11 11:16:40;;;;;;;12.57;9.13;;;;;;;23.59;43.73;93103.59;5071909;28;20245;-77
2023/09/11 11:19:05;;;;;;;12.27;9.55;;;;;;;23.45;43.90;93100.59;5072551;28;20184;-76
2023/09/11 11:21:40;;;;;;;9.52;8.82;;;;;;;23.79;42.21;93099.06;5072349;28;20240;-77